sensor_id;sensor_type;location;lat;lon;timestamp;temperature;humidity
46720;DHT22;32452;51.382;-0.002;2023-12-22T00:02:43;10.20;94.90
46720;DHT22;32452;51.382;-0.002;2023-12-22T00:05:31;10.10;94.90
46720;DHT22;32452;51.382;-0.002;2023-12-22T00:08:17;10.20;95.00
46720;DHT22;32452;51.382;-0.002;2023-12-22T00:11:04;10.10;95.00
46720;DHT22;32452;51.382;-0.002;2023-12-22T00:13:50;10.10;95.00
46720;DHT22;32452;51.382;-0.002;2023-12-22T00:16:37;10.10;95.00
46720;DHT22;32452;51.382;-0.002;2023-12-22T00:19:25;10.10;95.10
46720;DHT22;32452;51.382;-0.002;2023-12-22T00:22:11;10.10;95.20
46720;DHT22;32452;51.382;-0.002;2023-12-22T00:24:57;10.10;95.30
46720;DHT22;32452;51.382;-0.002;2023-12-22T00:27:43;10.00;95.30
46720;DHT22;32452;51.382;-0.002;2023-12-22T00:30:29;10.00;95.50
46720;DHT22;32452;51.382;-0.002;2023-12-22T00:33:14;10.00;95.60
46720;DHT22;32452;51.382;-0.002;2023-12-22T00:36:01;10.00;95.70
46720;DHT22;32452;51.382;-0.002;2023-12-22T00:38:47;10.00;95.80
46720;DHT22;32452;51.382;-0.002;2023-12-22T00:41:32;10.00;95.80
46720;DHT22;32452;51.382;-0.002;2023-12-22T00:44:18;10.00;96.00
46720;DHT22;32452;51.382;-0.002;2023-12-22T00:47:03;10.00;96.00
46720;DHT22;32452;51.382;-0.002;2023-12-22T00:49:49;10.00;96.10
46720;DHT22;32452;51.382;-0.002;2023-12-22T00:52:34;10.10;96.30
46720;DHT22;32452;51.382;-0.002;2023-12-22T00:55:20;10.10;96.40
46720;DHT22;32452;51.382;-0.002;2023-12-22T00:58:06;10.10;96.50
46720;DHT22;32452;51.382;-0.002;2023-12-22T01:00:58;10.10;96.60
46720;DHT22;32452;51.382;-0.002;2023-12-22T01:03:55;10.10;96.70
46720;DHT22;32452;51.382;-0.002;2023-12-22T01:06:51;10.10;96.90
46720;DHT22;32452;51.382;-0.002;2023-12-22T01:09:40;10.10;97.00
46720;DHT22;32452;51.382;-0.002;2023-12-22T01:12:25;10.20;97.10
46720;DHT22;32452;51.382;-0.002;2023-12-22T01:15:11;10.20;97.20
46720;DHT22;32452;51.382;-0.002;2023-12-22T01:17:57;10.20;97.40
46720;DHT22;32452;51.382;-0.002;2023-12-22T01:20:44;10.20;97.50
46720;DHT22;32452;51.382;-0.002;2023-12-22T01:23:35;10.20;97.60
46720;DHT22;32452;51.382;-0.002;2023-12-22T01:26:22;10.20;97.70
46720;DHT22;32452;51.382;-0.002;2023-12-22T01:29:10;10.20;97.90
46720;DHT22;32452;51.382;-0.002;2023-12-22T01:32:07;10.30;98.10
46720;DHT22;32452;51.382;-0.002;2023-12-22T01:34:56;10.30;98.40
46720;DHT22;32452;51.382;-0.002;2023-12-22T01:37:42;10.40;98.60
46720;DHT22;32452;51.382;-0.002;2023-12-22T01:40:28;10.40;98.70
46720;DHT22;32452;51.382;-0.002;2023-12-22T01:43:14;10.40;98.90
46720;DHT22;32452;51.382;-0.002;2023-12-22T01:46:06;10.50;99.10
46720;DHT22;32452;51.382;-0.002;2023-12-22T01:48:56;10.50;99.40
46720;DHT22;32452;51.382;-0.002;2023-12-22T01:51:46;10.50;99.70
46720;DHT22;32452;51.382;-0.002;2023-12-22T01:54:31;10.50;99.90
46720;DHT22;32452;51.382;-0.002;2023-12-22T01:57:18;10.60;99.90
46720;DHT22;32452;51.382;-0.002;2023-12-22T02:00:05;10.60;99.90
46720;DHT22;32452;51.382;-0.002;2023-12-22T02:02:51;10.60;99.90
46720;DHT22;32452;51.382;-0.002;2023-12-22T02:05:43;10.60;99.90
46720;DHT22;32452;51.382;-0.002;2023-12-22T02:08:31;10.60;99.90
46720;DHT22;32452;51.382;-0.002;2023-12-22T02:11:17;10.60;99.90
46720;DHT22;32452;51.382;-0.002;2023-12-22T02:14:04;10.60;99.90
46720;DHT22;32452;51.382;-0.002;2023-12-22T02:20:32;10.60;99.90
46720;DHT22;32452;51.382;-0.002;2023-12-22T02:23:19;10.60;99.90
46720;DHT22;32452;51.382;-0.002;2023-12-22T02:26:25;10.50;99.90
46720;DHT22;32452;51.382;-0.002;2023-12-22T02:29:14;10.50;99.90
46720;DHT22;32452;51.382;-0.002;2023-12-22T02:32:21;10.40;99.90
46720;DHT22;32452;51.382;-0.002;2023-12-22T02:35:15;10.30;99.90
46720;DHT22;32452;51.382;-0.002;2023-12-22T02:38:03;10.30;99.90
46720;DHT22;32452;51.382;-0.002;2023-12-22T02:40:50;10.30;99.90
46720;DHT22;32452;51.382;-0.002;2023-12-22T02:43:36;10.30;99.90
46720;DHT22;32452;51.382;-0.002;2023-12-22T02:46:22;10.20;99.90
46720;DHT22;32452;51.382;-0.002;2023-12-22T02:49:07;10.20;99.90
46720;DHT22;32452;51.382;-0.002;2023-12-22T02:51:54;10.20;99.90
46720;DHT22;32452;51.382;-0.002;2023-12-22T02:54:39;10.10;99.90
46720;DHT22;32452;51.382;-0.002;2023-12-22T02:57:25;10.10;99.90
46720;DHT22;32452;51.382;-0.002;2023-12-22T03:00:11;10.10;99.90
46720;DHT22;32452;51.382;-0.002;2023-12-22T03:02:57;10.10;99.90
46720;DHT22;32452;51.382;-0.002;2023-12-22T03:05:42;10.00;99.90
46720;DHT22;32452;51.382;-0.002;2023-12-22T03:08:28;10.00;99.90
46720;DHT22;32452;51.382;-0.002;2023-12-22T03:11:13;10.00;99.90
46720;DHT22;32452;51.382;-0.002;2023-12-22T03:13:59;10.00;99.90
46720;DHT22;32452;51.382;-0.002;2023-12-22T03:16:44;10.00;99.90
46720;DHT22;32452;51.382;-0.002;2023-12-22T03:19:30;10.00;99.90
46720;DHT22;32452;51.382;-0.002;2023-12-22T03:22:16;10.00;99.90
46720;DHT22;32452;51.382;-0.002;2023-12-22T03:25:01;10.00;99.90
46720;DHT22;32452;51.382;-0.002;2023-12-22T03:27:47;10.00;99.90
46720;DHT22;32452;51.382;-0.002;2023-12-22T03:30:34;9.90;99.90
46720;DHT22;32452;51.382;-0.002;2023-12-22T03:33:21;9.90;99.90
46720;DHT22;32452;51.382;-0.002;2023-12-22T03:36:07;9.90;99.90
46720;DHT22;32452;51.382;-0.002;2023-12-22T03:38:53;9.90;99.90
46720;DHT22;32452;51.382;-0.002;2023-12-22T03:41:38;9.80;99.90
46720;DHT22;32452;51.382;-0.002;2023-12-22T03:44:24;9.90;99.90
46720;DHT22;32452;51.382;-0.002;2023-12-22T03:47:11;9.90;99.90
46720;DHT22;32452;51.382;-0.002;2023-12-22T03:49:57;9.90;99.90
46720;DHT22;32452;51.382;-0.002;2023-12-22T03:52:42;9.90;99.90
46720;DHT22;32452;51.382;-0.002;2023-12-22T03:55:28;9.90;99.90
46720;DHT22;32452;51.382;-0.002;2023-12-22T03:58:14;9.90;99.90
46720;DHT22;32452;51.382;-0.002;2023-12-22T04:00:59;9.90;99.90
46720;DHT22;32452;51.382;-0.002;2023-12-22T04:03:45;9.90;99.90
46720;DHT22;32452;51.382;-0.002;2023-12-22T04:06:31;9.90;99.90
46720;DHT22;32452;51.382;-0.002;2023-12-22T04:09:16;10.00;99.90
46720;DHT22;32452;51.382;-0.002;2023-12-22T04:12:02;10.00;99.90
46720;DHT22;32452;51.382;-0.002;2023-12-22T04:14:48;10.00;99.90
46720;DHT22;32452;51.382;-0.002;2023-12-22T04:17:34;10.10;99.90
46720;DHT22;32452;51.382;-0.002;2023-12-22T04:20:19;10.10;99.90
46720;DHT22;32452;51.382;-0.002;2023-12-22T04:23:05;10.20;99.90
46720;DHT22;32452;51.382;-0.002;2023-12-22T04:25:51;10.20;99.90
46720;DHT22;32452;51.382;-0.002;2023-12-22T04:28:36;10.20;99.90
46720;DHT22;32452;51.382;-0.002;2023-12-22T04:31:22;10.20;99.90
46720;DHT22;32452;51.382;-0.002;2023-12-22T04:34:13;10.30;99.90
46720;DHT22;32452;51.382;-0.002;2023-12-22T04:36:59;10.30;99.90
46720;DHT22;32452;51.382;-0.002;2023-12-22T04:39:45;10.30;99.90
46720;DHT22;32452;51.382;-0.002;2023-12-22T04:42:31;10.40;99.90
46720;DHT22;32452;51.382;-0.002;2023-12-22T04:45:16;10.40;99.90
46720;DHT22;32452;51.382;-0.002;2023-12-22T04:48:02;10.40;99.90
46720;DHT22;32452;51.382;-0.002;2023-12-22T04:50:48;10.40;99.90
46720;DHT22;32452;51.382;-0.002;2023-12-22T04:53:34;10.40;99.90
46720;DHT22;32452;51.382;-0.002;2023-12-22T04:56:19;10.50;99.90
46720;DHT22;32452;51.382;-0.002;2023-12-22T04:59:04;10.50;99.90
46720;DHT22;32452;51.382;-0.002;2023-12-22T05:01:50;10.50;99.90
46720;DHT22;32452;51.382;-0.002;2023-12-22T05:04:37;10.50;99.90
46720;DHT22;32452;51.382;-0.002;2023-12-22T05:07:22;10.60;99.90
46720;DHT22;32452;51.382;-0.002;2023-12-22T05:10:08;10.60;99.90
46720;DHT22;32452;51.382;-0.002;2023-12-22T05:12:54;10.60;99.90
46720;DHT22;32452;51.382;-0.002;2023-12-22T05:15:39;10.60;99.90
46720;DHT22;32452;51.382;-0.002;2023-12-22T05:18:26;10.60;99.90
46720;DHT22;32452;51.382;-0.002;2023-12-22T05:21:14;10.60;99.90
46720;DHT22;32452;51.382;-0.002;2023-12-22T05:24:00;10.60;99.90
46720;DHT22;32452;51.382;-0.002;2023-12-22T05:26:45;10.70;99.90
46720;DHT22;32452;51.382;-0.002;2023-12-22T05:29:31;10.70;99.90
46720;DHT22;32452;51.382;-0.002;2023-12-22T05:32:19;10.70;99.90
46720;DHT22;32452;51.382;-0.002;2023-12-22T05:35:05;10.70;99.90
46720;DHT22;32452;51.382;-0.002;2023-12-22T05:37:50;10.60;99.90
46720;DHT22;32452;51.382;-0.002;2023-12-22T05:40:36;10.60;99.90
46720;DHT22;32452;51.382;-0.002;2023-12-22T05:43:22;10.60;99.90
46720;DHT22;32452;51.382;-0.002;2023-12-22T05:46:08;10.60;99.90
46720;DHT22;32452;51.382;-0.002;2023-12-22T05:48:54;10.70;99.90
46720;DHT22;32452;51.382;-0.002;2023-12-22T05:51:44;10.70;99.90
46720;DHT22;32452;51.382;-0.002;2023-12-22T05:54:30;10.70;99.90
46720;DHT22;32452;51.382;-0.002;2023-12-22T05:57:15;10.70;99.90
46720;DHT22;32452;51.382;-0.002;2023-12-22T06:00:03;10.70;99.90
46720;DHT22;32452;51.382;-0.002;2023-12-22T06:02:55;10.70;99.90
46720;DHT22;32452;51.382;-0.002;2023-12-22T06:05:52;10.70;99.90
46720;DHT22;32452;51.382;-0.002;2023-12-22T06:08:37;10.60;99.90
46720;DHT22;32452;51.382;-0.002;2023-12-22T06:11:23;10.60;99.90
46720;DHT22;32452;51.382;-0.002;2023-12-22T06:14:09;10.60;99.90
46720;DHT22;32452;51.382;-0.002;2023-12-22T06:16:54;10.60;99.90
46720;DHT22;32452;51.382;-0.002;2023-12-22T06:19:43;10.60;99.90
46720;DHT22;32452;51.382;-0.002;2023-12-22T06:22:28;10.60;99.90
46720;DHT22;32452;51.382;-0.002;2023-12-22T06:25:14;10.60;99.90
46720;DHT22;32452;51.382;-0.002;2023-12-22T06:28:00;10.60;99.90
46720;DHT22;32452;51.382;-0.002;2023-12-22T06:30:45;10.60;99.90
46720;DHT22;32452;51.382;-0.002;2023-12-22T06:33:32;10.50;99.90
46720;DHT22;32452;51.382;-0.002;2023-12-22T06:36:21;10.50;99.90
46720;DHT22;32452;51.382;-0.002;2023-12-22T06:39:07;10.50;99.90
46720;DHT22;32452;51.382;-0.002;2023-12-22T06:41:52;10.50;99.90
46720;DHT22;32452;51.382;-0.002;2023-12-22T06:44:41;10.50;99.90
46720;DHT22;32452;51.382;-0.002;2023-12-22T06:47:26;10.50;99.90
46720;DHT22;32452;51.382;-0.002;2023-12-22T06:50:12;10.50;99.90
46720;DHT22;32452;51.382;-0.002;2023-12-22T06:52:58;10.50;99.90
46720;DHT22;32452;51.382;-0.002;2023-12-22T06:55:54;10.50;99.90
46720;DHT22;32452;51.382;-0.002;2023-12-22T06:58:40;10.50;99.90
46720;DHT22;32452;51.382;-0.002;2023-12-22T07:01:30;10.50;99.90
46720;DHT22;32452;51.382;-0.002;2023-12-22T07:04:19;10.60;99.90
46720;DHT22;32452;51.382;-0.002;2023-12-22T07:07:04;10.60;99.90
46720;DHT22;32452;51.382;-0.002;2023-12-22T07:09:50;10.60;99.90
46720;DHT22;32452;51.382;-0.002;2023-12-22T07:12:36;10.60;99.90
46720;DHT22;32452;51.382;-0.002;2023-12-22T07:15:21;10.60;99.90
46720;DHT22;32452;51.382;-0.002;2023-12-22T07:18:07;10.70;99.90
46720;DHT22;32452;51.382;-0.002;2023-12-22T07:20:53;10.70;99.90
46720;DHT22;32452;51.382;-0.002;2023-12-22T07:23:38;10.70;99.90
46720;DHT22;32452;51.382;-0.002;2023-12-22T07:26:25;10.70;99.90
46720;DHT22;32452;51.382;-0.002;2023-12-22T07:29:11;10.80;99.90
46720;DHT22;32452;51.382;-0.002;2023-12-22T07:31:57;10.80;99.90
46720;DHT22;32452;51.382;-0.002;2023-12-22T07:34:44;10.80;99.90
46720;DHT22;32452;51.382;-0.002;2023-12-22T07:37:30;10.80;99.90
46720;DHT22;32452;51.382;-0.002;2023-12-22T07:40:15;10.80;99.90
46720;DHT22;32452;51.382;-0.002;2023-12-22T07:43:02;10.90;99.90
46720;DHT22;32452;51.382;-0.002;2023-12-22T07:45:49;10.90;99.90
46720;DHT22;32452;51.382;-0.002;2023-12-22T07:48:36;10.90;99.90
46720;DHT22;32452;51.382;-0.002;2023-12-22T07:51:22;10.90;99.90
46720;DHT22;32452;51.382;-0.002;2023-12-22T07:54:08;10.90;99.90
46720;DHT22;32452;51.382;-0.002;2023-12-22T07:56:53;10.90;99.90
46720;DHT22;32452;51.382;-0.002;2023-12-22T07:59:39;10.90;99.90
46720;DHT22;32452;51.382;-0.002;2023-12-22T08:02:24;10.90;99.90
46720;DHT22;32452;51.382;-0.002;2023-12-22T08:05:10;10.90;99.90
46720;DHT22;32452;51.382;-0.002;2023-12-22T08:07:56;10.90;99.90
46720;DHT22;32452;51.382;-0.002;2023-12-22T08:10:41;10.90;99.90
46720;DHT22;32452;51.382;-0.002;2023-12-22T08:13:27;10.90;99.90
46720;DHT22;32452;51.382;-0.002;2023-12-22T08:16:13;10.90;99.90
46720;DHT22;32452;51.382;-0.002;2023-12-22T08:18:59;10.90;99.90
46720;DHT22;32452;51.382;-0.002;2023-12-22T08:21:44;10.90;99.90
46720;DHT22;32452;51.382;-0.002;2023-12-22T08:24:32;10.90;99.90
46720;DHT22;32452;51.382;-0.002;2023-12-22T08:27:18;10.90;99.90
46720;DHT22;32452;51.382;-0.002;2023-12-22T08:30:04;10.90;99.90
46720;DHT22;32452;51.382;-0.002;2023-12-22T08:32:50;10.90;99.90
46720;DHT22;32452;51.382;-0.002;2023-12-22T08:35:36;11.00;99.90
46720;DHT22;32452;51.382;-0.002;2023-12-22T08:38:22;11.00;99.90
46720;DHT22;32452;51.382;-0.002;2023-12-22T08:41:08;11.00;99.90
46720;DHT22;32452;51.382;-0.002;2023-12-22T08:43:54;11.00;99.90
46720;DHT22;32452;51.382;-0.002;2023-12-22T08:46:40;11.00;99.90
46720;DHT22;32452;51.382;-0.002;2023-12-22T08:49:26;11.10;99.90
46720;DHT22;32452;51.382;-0.002;2023-12-22T08:52:11;11.10;99.90
46720;DHT22;32452;51.382;-0.002;2023-12-22T08:54:57;11.10;99.90
46720;DHT22;32452;51.382;-0.002;2023-12-22T08:57:43;11.10;99.90
46720;DHT22;32452;51.382;-0.002;2023-12-22T09:00:41;11.20;99.90
46720;DHT22;32452;51.382;-0.002;2023-12-22T09:03:27;11.20;99.90
46720;DHT22;32452;51.382;-0.002;2023-12-22T09:06:17;11.30;99.90
46720;DHT22;32452;51.382;-0.002;2023-12-22T09:09:03;11.30;99.90
46720;DHT22;32452;51.382;-0.002;2023-12-22T09:11:54;11.30;99.90
46720;DHT22;32452;51.382;-0.002;2023-12-22T09:14:39;11.40;99.90
46720;DHT22;32452;51.382;-0.002;2023-12-22T09:17:26;11.40;99.90
46720;DHT22;32452;51.382;-0.002;2023-12-22T09:20:13;11.40;99.90
46720;DHT22;32452;51.382;-0.002;2023-12-22T09:22:59;11.40;99.90
46720;DHT22;32452;51.382;-0.002;2023-12-22T09:25:44;11.40;99.90
46720;DHT22;32452;51.382;-0.002;2023-12-22T09:28:30;11.40;99.90
46720;DHT22;32452;51.382;-0.002;2023-12-22T09:31:16;11.40;99.90
46720;DHT22;32452;51.382;-0.002;2023-12-22T09:34:01;11.40;99.90
46720;DHT22;32452;51.382;-0.002;2023-12-22T09:36:48;11.40;99.90
46720;DHT22;32452;51.382;-0.002;2023-12-22T09:39:34;11.40;99.90
46720;DHT22;32452;51.382;-0.002;2023-12-22T09:42:21;11.40;99.90
46720;DHT22;32452;51.382;-0.002;2023-12-22T09:45:08;11.50;99.90
46720;DHT22;32452;51.382;-0.002;2023-12-22T09:47:56;11.50;99.90
46720;DHT22;32452;51.382;-0.002;2023-12-22T09:50:44;11.50;99.90
46720;DHT22;32452;51.382;-0.002;2023-12-22T09:53:31;11.50;99.90
46720;DHT22;32452;51.382;-0.002;2023-12-22T09:56:18;11.50;99.90
46720;DHT22;32452;51.382;-0.002;2023-12-22T09:59:04;11.50;99.90
46720;DHT22;32452;51.382;-0.002;2023-12-22T10:01:51;11.50;99.90
46720;DHT22;32452;51.382;-0.002;2023-12-22T10:04:38;11.50;99.90
46720;DHT22;32452;51.382;-0.002;2023-12-22T10:07:24;11.50;99.90
46720;DHT22;32452;51.382;-0.002;2023-12-22T10:10:12;11.50;99.90
46720;DHT22;32452;51.382;-0.002;2023-12-22T10:12:59;11.50;99.90
46720;DHT22;32452;51.382;-0.002;2023-12-22T10:15:45;11.50;99.90
46720;DHT22;32452;51.382;-0.002;2023-12-22T10:18:33;11.50;99.90
46720;DHT22;32452;51.382;-0.002;2023-12-22T10:21:19;11.50;99.90
46720;DHT22;32452;51.382;-0.002;2023-12-22T10:24:05;11.50;99.90
46720;DHT22;32452;51.382;-0.002;2023-12-22T10:26:51;11.50;99.90
46720;DHT22;32452;51.382;-0.002;2023-12-22T10:29:41;11.50;99.90
46720;DHT22;32452;51.382;-0.002;2023-12-22T10:32:27;11.60;99.90
46720;DHT22;32452;51.382;-0.002;2023-12-22T10:35:12;11.60;99.90
46720;DHT22;32452;51.382;-0.002;2023-12-22T10:37:58;11.60;99.90
46720;DHT22;32452;51.382;-0.002;2023-12-22T10:40:49;11.60;99.90
46720;DHT22;32452;51.382;-0.002;2023-12-22T10:43:39;11.60;99.90
46720;DHT22;32452;51.382;-0.002;2023-12-22T10:46:25;11.60;99.90
46720;DHT22;32452;51.382;-0.002;2023-12-22T10:49:11;11.60;99.90
46720;DHT22;32452;51.382;-0.002;2023-12-22T10:51:57;11.70;99.90
46720;DHT22;32452;51.382;-0.002;2023-12-22T10:54:43;11.70;99.90
46720;DHT22;32452;51.382;-0.002;2023-12-22T10:57:29;11.70;99.90
46720;DHT22;32452;51.382;-0.002;2023-12-22T11:00:20;11.70;99.90
46720;DHT22;32452;51.382;-0.002;2023-12-22T11:03:06;11.80;99.90
46720;DHT22;32452;51.382;-0.002;2023-12-22T11:05:54;11.70;99.90
46720;DHT22;32452;51.382;-0.002;2023-12-22T11:08:47;11.80;99.90
46720;DHT22;32452;51.382;-0.002;2023-12-22T11:11:38;11.70;99.90
46720;DHT22;32452;51.382;-0.002;2023-12-22T11:14:24;11.70;99.90
46720;DHT22;32452;51.382;-0.002;2023-12-22T11:17:11;11.70;99.90
46720;DHT22;32452;51.382;-0.002;2023-12-22T11:19:58;11.70;99.90
46720;DHT22;32452;51.382;-0.002;2023-12-22T11:22:45;11.70;99.90
46720;DHT22;32452;51.382;-0.002;2023-12-22T11:25:31;11.70;99.90
46720;DHT22;32452;51.382;-0.002;2023-12-22T11:28:18;11.70;99.90
46720;DHT22;32452;51.382;-0.002;2023-12-22T11:31:10;11.70;99.90
46720;DHT22;32452;51.382;-0.002;2023-12-22T11:33:56;11.80;99.90
46720;DHT22;32452;51.382;-0.002;2023-12-22T11:36:57;11.90;99.90
46720;DHT22;32452;51.382;-0.002;2023-12-22T11:39:44;11.80;99.90
46720;DHT22;32452;51.382;-0.002;2023-12-22T11:42:35;11.90;99.90
46720;DHT22;32452;51.382;-0.002;2023-12-22T11:45:23;11.90;99.90
46720;DHT22;32452;51.382;-0.002;2023-12-22T11:48:10;11.90;99.90
46720;DHT22;32452;51.382;-0.002;2023-12-22T11:50:56;12.00;99.90
46720;DHT22;32452;51.382;-0.002;2023-12-22T11:53:42;12.00;99.90
46720;DHT22;32452;51.382;-0.002;2023-12-22T11:56:29;12.00;99.90
46720;DHT22;32452;51.382;-0.002;2023-12-22T11:59:17;12.00;99.90
46720;DHT22;32452;51.382;-0.002;2023-12-22T12:02:02;12.10;99.90
46720;DHT22;32452;51.382;-0.002;2023-12-22T12:04:49;12.00;99.90
46720;DHT22;32452;51.382;-0.002;2023-12-22T12:13:23;12.20;99.90
46720;DHT22;32452;51.382;-0.002;2023-12-22T12:16:13;12.20;99.90
46720;DHT22;32452;51.382;-0.002;2023-12-22T12:19:00;12.10;99.90
46720;DHT22;32452;51.382;-0.002;2023-12-22T12:21:47;12.20;99.90
46720;DHT22;32452;51.382;-0.002;2023-12-22T12:24:33;12.20;99.90
46720;DHT22;32452;51.382;-0.002;2023-12-22T12:27:20;12.20;99.90
46720;DHT22;32452;51.382;-0.002;2023-12-22T12:30:11;12.20;99.90
46720;DHT22;32452;51.382;-0.002;2023-12-22T12:33:07;12.20;99.90
46720;DHT22;32452;51.382;-0.002;2023-12-22T12:36:00;12.20;99.90
46720;DHT22;32452;51.382;-0.002;2023-12-22T12:39:05;12.20;99.90
46720;DHT22;32452;51.382;-0.002;2023-12-22T12:41:53;12.20;99.90
46720;DHT22;32452;51.382;-0.002;2023-12-22T12:44:39;12.20;99.90
46720;DHT22;32452;51.382;-0.002;2023-12-22T12:47:26;12.30;99.90
46720;DHT22;32452;51.382;-0.002;2023-12-22T12:50:12;12.30;99.90
46720;DHT22;32452;51.382;-0.002;2023-12-22T12:52:58;12.30;99.90
46720;DHT22;32452;51.382;-0.002;2023-12-22T12:55:45;12.30;99.90
46720;DHT22;32452;51.382;-0.002;2023-12-22T12:58:32;12.30;99.90
46720;DHT22;32452;51.382;-0.002;2023-12-22T13:01:18;12.30;99.90
46720;DHT22;32452;51.382;-0.002;2023-12-22T13:04:14;12.20;99.90
46720;DHT22;32452;51.382;-0.002;2023-12-22T13:07:00;12.20;99.90
46720;DHT22;32452;51.382;-0.002;2023-12-22T13:09:46;12.20;99.90
46720;DHT22;32452;51.382;-0.002;2023-12-22T13:12:32;12.20;99.90
46720;DHT22;32452;51.382;-0.002;2023-12-22T13:15:18;12.20;99.90
46720;DHT22;32452;51.382;-0.002;2023-12-22T13:18:03;12.10;99.90
46720;DHT22;32452;51.382;-0.002;2023-12-22T13:20:49;12.10;99.90
46720;DHT22;32452;51.382;-0.002;2023-12-22T13:23:37;12.10;99.90
46720;DHT22;32452;51.382;-0.002;2023-12-22T13:26:24;12.10;99.90
46720;DHT22;32452;51.382;-0.002;2023-12-22T13:29:10;12.10;99.90
46720;DHT22;32452;51.382;-0.002;2023-12-22T13:31:56;12.10;99.90
46720;DHT22;32452;51.382;-0.002;2023-12-22T13:34:53;12.10;99.90
46720;DHT22;32452;51.382;-0.002;2023-12-22T13:37:42;12.10;99.90
46720;DHT22;32452;51.382;-0.002;2023-12-22T13:40:28;12.10;99.90
46720;DHT22;32452;51.382;-0.002;2023-12-22T13:43:15;12.10;99.90
46720;DHT22;32452;51.382;-0.002;2023-12-22T13:46:00;12.10;99.90
46720;DHT22;32452;51.382;-0.002;2023-12-22T13:48:46;12.10;99.90
46720;DHT22;32452;51.382;-0.002;2023-12-22T13:51:45;12.10;99.90
46720;DHT22;32452;51.382;-0.002;2023-12-22T13:54:33;12.10;99.90
46720;DHT22;32452;51.382;-0.002;2023-12-22T13:57:20;12.20;99.90
46720;DHT22;32452;51.382;-0.002;2023-12-22T14:03:05;12.20;99.90
46720;DHT22;32452;51.382;-0.002;2023-12-22T14:05:54;12.20;99.90
46720;DHT22;32452;51.382;-0.002;2023-12-22T14:08:41;12.20;99.90
46720;DHT22;32452;51.382;-0.002;2023-12-22T14:11:27;12.20;99.90
46720;DHT22;32452;51.382;-0.002;2023-12-22T14:14:16;12.20;99.90
46720;DHT22;32452;51.382;-0.002;2023-12-22T14:17:03;12.20;99.90
46720;DHT22;32452;51.382;-0.002;2023-12-22T14:19:48;12.20;99.90
46720;DHT22;32452;51.382;-0.002;2023-12-22T14:22:35;12.20;99.90
46720;DHT22;32452;51.382;-0.002;2023-12-22T14:25:21;12.20;99.90
46720;DHT22;32452;51.382;-0.002;2023-12-22T14:28:06;12.20;99.90
46720;DHT22;32452;51.382;-0.002;2023-12-22T14:30:52;12.30;99.90
46720;DHT22;32452;51.382;-0.002;2023-12-22T14:33:37;12.30;99.90
46720;DHT22;32452;51.382;-0.002;2023-12-22T14:36:26;12.30;99.90
46720;DHT22;32452;51.382;-0.002;2023-12-22T14:39:12;12.30;99.90
46720;DHT22;32452;51.382;-0.002;2023-12-22T14:41:58;12.30;99.90
46720;DHT22;32452;51.382;-0.002;2023-12-22T14:44:44;12.30;99.90
46720;DHT22;32452;51.382;-0.002;2023-12-22T14:47:29;12.30;99.90
46720;DHT22;32452;51.382;-0.002;2023-12-22T14:50:16;12.30;99.90
46720;DHT22;32452;51.382;-0.002;2023-12-22T14:53:03;12.30;99.90
46720;DHT22;32452;51.382;-0.002;2023-12-22T14:55:48;12.40;99.90
46720;DHT22;32452;51.382;-0.002;2023-12-22T14:58:34;12.30;99.80
46720;DHT22;32452;51.382;-0.002;2023-12-22T15:01:22;12.30;99.80
46720;DHT22;32452;51.382;-0.002;2023-12-22T15:04:08;12.30;99.80
46720;DHT22;32452;51.382;-0.002;2023-12-22T15:06:54;12.30;99.80
46720;DHT22;32452;51.382;-0.002;2023-12-22T15:09:46;12.30;99.60
46720;DHT22;32452;51.382;-0.002;2023-12-22T15:12:33;12.30;99.60
46720;DHT22;32452;51.382;-0.002;2023-12-22T15:15:22;12.20;99.50
46720;DHT22;32452;51.382;-0.002;2023-12-22T15:18:08;12.20;99.60
46720;DHT22;32452;51.382;-0.002;2023-12-22T15:20:57;12.20;99.50
46720;DHT22;32452;51.382;-0.002;2023-12-22T15:23:43;12.20;99.50
46720;DHT22;32452;51.382;-0.002;2023-12-22T15:26:28;12.20;99.80
46720;DHT22;32452;51.382;-0.002;2023-12-22T15:29:14;12.20;99.50
46720;DHT22;32452;51.382;-0.002;2023-12-22T15:31:59;12.20;99.50
46720;DHT22;32452;51.382;-0.002;2023-12-22T15:34:45;12.10;99.50
46720;DHT22;32452;51.382;-0.002;2023-12-22T15:37:32;12.10;99.50
46720;DHT22;32452;51.382;-0.002;2023-12-22T15:40:20;12.10;99.40
46720;DHT22;32452;51.382;-0.002;2023-12-22T15:43:06;12.10;99.40
46720;DHT22;32452;51.382;-0.002;2023-12-22T15:45:53;12.00;99.30
46720;DHT22;32452;51.382;-0.002;2023-12-22T15:48:39;12.00;99.40
46720;DHT22;32452;51.382;-0.002;2023-12-22T15:51:24;12.00;99.30
46720;DHT22;32452;51.382;-0.002;2023-12-22T15:54:10;12.00;99.40
46720;DHT22;32452;51.382;-0.002;2023-12-22T15:56:56;11.90;99.70
46720;DHT22;32452;51.382;-0.002;2023-12-22T15:59:41;11.90;99.30
46720;DHT22;32452;51.382;-0.002;2023-12-22T16:02:27;11.90;99.40
46720;DHT22;32452;51.382;-0.002;2023-12-22T16:05:12;11.90;99.40
46720;DHT22;32452;51.382;-0.002;2023-12-22T16:07:59;11.90;99.30
46720;DHT22;32452;51.382;-0.002;2023-12-22T16:10:47;11.90;99.30
46720;DHT22;32452;51.382;-0.002;2023-12-22T16:13:33;11.80;99.20
46720;DHT22;32452;51.382;-0.002;2023-12-22T16:16:18;11.80;99.10
46720;DHT22;32452;51.382;-0.002;2023-12-22T16:19:04;11.80;99.00
46720;DHT22;32452;51.382;-0.002;2023-12-22T16:21:54;11.80;99.00
46720;DHT22;32452;51.382;-0.002;2023-12-22T16:24:40;11.80;98.90
46720;DHT22;32452;51.382;-0.002;2023-12-22T16:27:25;11.80;98.90
46720;DHT22;32452;51.382;-0.002;2023-12-22T16:30:11;11.80;98.90
46720;DHT22;32452;51.382;-0.002;2023-12-22T16:32:57;11.80;98.90
46720;DHT22;32452;51.382;-0.002;2023-12-22T16:35:43;11.80;99.00
46720;DHT22;32452;51.382;-0.002;2023-12-22T16:38:29;11.70;98.90
46720;DHT22;32452;51.382;-0.002;2023-12-22T16:41:14;11.80;98.90
46720;DHT22;32452;51.382;-0.002;2023-12-22T16:44:01;11.80;98.90
46720;DHT22;32452;51.382;-0.002;2023-12-22T16:46:47;11.70;98.80
46720;DHT22;32452;51.382;-0.002;2023-12-22T16:49:35;11.70;98.80
46720;DHT22;32452;51.382;-0.002;2023-12-22T16:52:20;11.70;98.80
46720;DHT22;32452;51.382;-0.002;2023-12-22T16:55:07;11.70;98.80
46720;DHT22;32452;51.382;-0.002;2023-12-22T16:57:52;11.70;98.80
46720;DHT22;32452;51.382;-0.002;2023-12-22T17:00:40;11.70;98.80
46720;DHT22;32452;51.382;-0.002;2023-12-22T17:03:27;11.70;98.70
46720;DHT22;32452;51.382;-0.002;2023-12-22T17:06:13;11.70;98.80
46720;DHT22;32452;51.382;-0.002;2023-12-22T17:08:59;11.70;98.80
46720;DHT22;32452;51.382;-0.002;2023-12-22T17:11:45;11.70;98.70
46720;DHT22;32452;51.382;-0.002;2023-12-22T17:14:31;11.70;98.70
46720;DHT22;32452;51.382;-0.002;2023-12-22T17:17:16;11.60;98.60
46720;DHT22;32452;51.382;-0.002;2023-12-22T17:20:02;11.60;98.60
46720;DHT22;32452;51.382;-0.002;2023-12-22T17:22:49;11.60;98.70
46720;DHT22;32452;51.382;-0.002;2023-12-22T17:25:35;11.50;98.70
46720;DHT22;32452;51.382;-0.002;2023-12-22T17:28:31;11.50;98.70
46720;DHT22;32452;51.382;-0.002;2023-12-22T17:31:17;11.50;98.80
46720;DHT22;32452;51.382;-0.002;2023-12-22T17:34:03;11.50;98.80